sensor_id;sensor_type;location;lat;lon;timestamp;temperature;humidity
24618;DHT22;12762;51.730;5.356;2022-08-11T00:01:23;21.40;48.30
24618;DHT22;12762;51.730;5.356;2022-08-11T00:04:02;21.40;48.20
24618;DHT22;12762;51.730;5.356;2022-08-11T00:06:34;21.40;48.30
24618;DHT22;12762;51.730;5.356;2022-08-11T00:09:04;21.30;48.60
24618;DHT22;12762;51.730;5.356;2022-08-11T00:11:52;21.30;48.70
24618;DHT22;12762;51.730;5.356;2022-08-11T00:14:29;21.30;48.70
24618;DHT22;12762;51.730;5.356;2022-08-11T00:17:12;21.20;48.60
24618;DHT22;12762;51.730;5.356;2022-08-11T00:19:45;21.20;48.70
24618;DHT22;12762;51.730;5.356;2022-08-11T00:22:33;21.20;49.20
24618;DHT22;12762;51.730;5.356;2022-08-11T00:25:10;21.10;49.00
24618;DHT22;12762;51.730;5.356;2022-08-11T00:27:39;21.10;49.20
24618;DHT22;12762;51.730;5.356;2022-08-11T00:30:07;21.10;49.40
24618;DHT22;12762;51.730;5.356;2022-08-11T00:32:37;21.10;49.30
24618;DHT22;12762;51.730;5.356;2022-08-11T00:35:07;21.00;50.10
24618;DHT22;12762;51.730;5.356;2022-08-11T00:37:55;21.00;49.80
24618;DHT22;12762;51.730;5.356;2022-08-11T00:40:38;21.00;49.90
24618;DHT22;12762;51.730;5.356;2022-08-11T00:43:19;20.90;50.00
24618;DHT22;12762;51.730;5.356;2022-08-11T00:46:20;20.90;51.10
24618;DHT22;12762;51.730;5.356;2022-08-11T00:49:08;20.80;50.00
24618;DHT22;12762;51.730;5.356;2022-08-11T00:57:43;20.70;50.50
24618;DHT22;12762;51.730;5.356;2022-08-11T01:00:22;20.70;50.20
24618;DHT22;12762;51.730;5.356;2022-08-11T01:06:18;20.70;50.40
24618;DHT22;12762;51.730;5.356;2022-08-11T01:40:13;20.20;51.80
24618;DHT22;12762;51.730;5.356;2022-08-11T01:42:53;20.20;51.60
24618;DHT22;12762;51.730;5.356;2022-08-11T01:46:17;20.10;51.80
24618;DHT22;12762;51.730;5.356;2022-08-11T01:49:09;20.10;51.80
24618;DHT22;12762;51.730;5.356;2022-08-11T01:54:51;20.00;52.00
24618;DHT22;12762;51.730;5.356;2022-08-11T01:57:43;20.00;52.50
24618;DHT22;12762;51.730;5.356;2022-08-11T02:00:25;20.00;52.30
24618;DHT22;12762;51.730;5.356;2022-08-11T02:03:10;19.90;52.90
24618;DHT22;12762;51.730;5.356;2022-08-11T02:06:09;19.90;53.10
24618;DHT22;12762;51.730;5.356;2022-08-11T02:09:06;19.90;52.80
24618;DHT22;12762;51.730;5.356;2022-08-11T02:11:37;19.80;53.00
24618;DHT22;12762;51.730;5.356;2022-08-11T02:22:36;19.80;53.60
24618;DHT22;12762;51.730;5.356;2022-08-11T02:25:39;19.70;53.50
24618;DHT22;12762;51.730;5.356;2022-08-11T02:28:22;19.70;53.40
24618;DHT22;12762;51.730;5.356;2022-08-11T02:31:14;19.70;53.70
24618;DHT22;12762;51.730;5.356;2022-08-11T02:34:44;19.60;53.60
24618;DHT22;12762;51.730;5.356;2022-08-11T02:48:49;19.40;53.60
24618;DHT22;12762;51.730;5.356;2022-08-11T02:59:35;19.30;53.90
24618;DHT22;12762;51.730;5.356;2022-08-11T03:10:19;19.20;54.50
24618;DHT22;12762;51.730;5.356;2022-08-11T03:13:03;19.20;54.70
24618;DHT22;12762;51.730;5.356;2022-08-11T03:19:13;19.20;54.60
24618;DHT22;12762;51.730;5.356;2022-08-11T03:21:53;19.10;54.60
24618;DHT22;12762;51.730;5.356;2022-08-11T03:27:57;19.10;54.90
24618;DHT22;12762;51.730;5.356;2022-08-11T03:30:46;19.00;54.70
24618;DHT22;12762;51.730;5.356;2022-08-11T03:33:22;19.00;54.80
24618;DHT22;12762;51.730;5.356;2022-08-11T03:39:46;18.90;54.90
24618;DHT22;12762;51.730;5.356;2022-08-11T03:42:56;18.90;55.10
24618;DHT22;12762;51.730;5.356;2022-08-11T03:45:29;18.90;54.90
24618;DHT22;12762;51.730;5.356;2022-08-11T03:48:36;18.80;55.20
24618;DHT22;12762;51.730;5.356;2022-08-11T03:54:10;18.80;55.30
24618;DHT22;12762;51.730;5.356;2022-08-11T03:57:09;18.70;55.30
24618;DHT22;12762;51.730;5.356;2022-08-11T04:00:03;18.70;55.50
24618;DHT22;12762;51.730;5.356;2022-08-11T04:03:18;18.70;55.70
24618;DHT22;12762;51.730;5.356;2022-08-11T04:30:15;18.50;55.70
24618;DHT22;12762;51.730;5.356;2022-08-11T04:39:08;18.40;56.30
24618;DHT22;12762;51.730;5.356;2022-08-11T05:12:34;18.30;57.40
24618;DHT22;12762;51.730;5.356;2022-08-11T05:15:02;18.30;57.40
24618;DHT22;12762;51.730;5.356;2022-08-11T05:17:59;18.30;57.40
24618;DHT22;12762;51.730;5.356;2022-08-11T05:20:49;18.30;56.90
24618;DHT22;12762;51.730;5.356;2022-08-11T05:23:40;18.30;57.20
24618;DHT22;12762;51.730;5.356;2022-08-11T05:26:29;18.40;57.40
24618;DHT22;12762;51.730;5.356;2022-08-11T05:29:38;18.40;57.70
24618;DHT22;12762;51.730;5.356;2022-08-11T05:32:25;18.40;57.60
24618;DHT22;12762;51.730;5.356;2022-08-11T05:35:12;18.40;57.60
24618;DHT22;12762;51.730;5.356;2022-08-11T05:38:01;18.40;57.80
24618;DHT22;12762;51.730;5.356;2022-08-11T05:40:53;18.40;57.80
24618;DHT22;12762;51.730;5.356;2022-08-11T05:43:43;18.50;57.60
24618;DHT22;12762;51.730;5.356;2022-08-11T05:46:48;18.50;57.80
24618;DHT22;12762;51.730;5.356;2022-08-11T05:49:35;18.50;58.00
24618;DHT22;12762;51.730;5.356;2022-08-11T05:52:25;18.60;58.30
24618;DHT22;12762;51.730;5.356;2022-08-11T05:55:15;18.60;58.10
24618;DHT22;12762;51.730;5.356;2022-08-11T05:58:05;18.60;58.00
24618;DHT22;12762;51.730;5.356;2022-08-11T06:00:41;18.70;58.30
24618;DHT22;12762;51.730;5.356;2022-08-11T06:03:09;18.70;58.60
24618;DHT22;12762;51.730;5.356;2022-08-11T06:05:37;18.70;58.60
24618;DHT22;12762;51.730;5.356;2022-08-11T06:08:11;18.80;59.00
24618;DHT22;12762;51.730;5.356;2022-08-11T06:10:41;18.80;59.00
24618;DHT22;12762;51.730;5.356;2022-08-11T06:13:09;18.90;59.00
24618;DHT22;12762;51.730;5.356;2022-08-11T06:15:48;18.90;59.20
24618;DHT22;12762;51.730;5.356;2022-08-11T06:18:15;19.00;59.30
24618;DHT22;12762;51.730;5.356;2022-08-11T06:20:47;19.00;59.20
24618;DHT22;12762;51.730;5.356;2022-08-11T06:23:15;19.10;59.60
24618;DHT22;12762;51.730;5.356;2022-08-11T06:25:46;19.10;59.50
24618;DHT22;12762;51.730;5.356;2022-08-11T06:28:17;19.20;59.20
24618;DHT22;12762;51.730;5.356;2022-08-11T06:30:47;19.30;59.50
24618;DHT22;12762;51.730;5.356;2022-08-11T06:33:30;19.30;59.50
24618;DHT22;12762;51.730;5.356;2022-08-11T06:38:57;19.50;59.70
24618;DHT22;12762;51.730;5.356;2022-08-11T06:41:39;19.50;59.60
24618;DHT22;12762;51.730;5.356;2022-08-11T06:46:46;19.70;59.70
24618;DHT22;12762;51.730;5.356;2022-08-11T06:49:17;19.80;59.70
24618;DHT22;12762;51.730;5.356;2022-08-11T06:52:10;19.80;59.70
24618;DHT22;12762;51.730;5.356;2022-08-11T06:55:04;19.90;59.70
24618;DHT22;12762;51.730;5.356;2022-08-11T06:57:36;20.00;59.70
24618;DHT22;12762;51.730;5.356;2022-08-11T07:00:24;20.10;59.50
24618;DHT22;12762;51.730;5.356;2022-08-11T07:03:00;20.20;59.30
24618;DHT22;12762;51.730;5.356;2022-08-11T07:05:50;20.30;59.40
24618;DHT22;12762;51.730;5.356;2022-08-11T07:11:53;20.50;59.10
24618;DHT22;12762;51.730;5.356;2022-08-11T07:14:54;21.00;60.20
24618;DHT22;12762;51.730;5.356;2022-08-11T07:17:43;22.50;60.10
24618;DHT22;12762;51.730;5.356;2022-08-11T07:20:16;24.10;58.00
24618;DHT22;12762;51.730;5.356;2022-08-11T07:23:03;25.50;56.20
24618;DHT22;12762;51.730;5.356;2022-08-11T07:25:51;26.80;54.00
24618;DHT22;12762;51.730;5.356;2022-08-11T07:28:44;28.10;51.70
24618;DHT22;12762;51.730;5.356;2022-08-11T07:31:25;29.20;50.00
24618;DHT22;12762;51.730;5.356;2022-08-11T07:34:24;30.10;48.50
24618;DHT22;12762;51.730;5.356;2022-08-11T07:36:57;31.00;48.30
24618;DHT22;12762;51.730;5.356;2022-08-11T07:39:26;31.70;45.60
24618;DHT22;12762;51.730;5.356;2022-08-11T07:41:56;32.30;44.40
24618;DHT22;12762;51.730;5.356;2022-08-11T07:44:27;32.80;43.10
24618;DHT22;12762;51.730;5.356;2022-08-11T07:47:01;33.00;40.40
24618;DHT22;12762;51.730;5.356;2022-08-11T07:49:47;33.60;40.70
24618;DHT22;12762;51.730;5.356;2022-08-11T07:52:35;34.10;40.00
24618;DHT22;12762;51.730;5.356;2022-08-11T07:55:11;34.60;39.40
24618;DHT22;12762;51.730;5.356;2022-08-11T07:57:40;34.80;38.70
24618;DHT22;12762;51.730;5.356;2022-08-11T08:00:54;35.10;38.80
24618;DHT22;12762;51.730;5.356;2022-08-11T08:03:48;35.30;37.80
24618;DHT22;12762;51.730;5.356;2022-08-11T08:06:35;35.40;37.20
24618;DHT22;12762;51.730;5.356;2022-08-11T08:09:22;35.40;36.70
24618;DHT22;12762;51.730;5.356;2022-08-11T08:12:09;35.40;36.60
24618;DHT22;12762;51.730;5.356;2022-08-11T08:14:55;35.50;36.50
24618;DHT22;12762;51.730;5.356;2022-08-11T08:17:43;35.40;36.30
24618;DHT22;12762;51.730;5.356;2022-08-11T08:20:47;35.40;36.10
24618;DHT22;12762;51.730;5.356;2022-08-11T08:23:24;35.40;36.40
24618;DHT22;12762;51.730;5.356;2022-08-11T08:26:03;35.40;36.40
24618;DHT22;12762;51.730;5.356;2022-08-11T08:28:31;35.30;36.20
24618;DHT22;12762;51.730;5.356;2022-08-11T08:31:02;35.20;36.30
24618;DHT22;12762;51.730;5.356;2022-08-11T08:33:30;35.20;36.80
24618;DHT22;12762;51.730;5.356;2022-08-11T08:36:01;35.20;35.90
24618;DHT22;12762;51.730;5.356;2022-08-11T08:38:49;35.30;35.70
24618;DHT22;12762;51.730;5.356;2022-08-11T08:41:25;35.40;35.80
24618;DHT22;12762;51.730;5.356;2022-08-11T08:43:59;35.50;35.00
24618;DHT22;12762;51.730;5.356;2022-08-11T08:46:54;35.60;34.60
24618;DHT22;12762;51.730;5.356;2022-08-11T08:49:28;35.80;34.70
24618;DHT22;12762;51.730;5.356;2022-08-11T08:52:01;36.00;34.50
24618;DHT22;12762;51.730;5.356;2022-08-11T08:54:52;36.10;33.90
24618;DHT22;12762;51.730;5.356;2022-08-11T08:57:26;36.20;33.80
24618;DHT22;12762;51.730;5.356;2022-08-11T09:00:08;36.30;33.60
24618;DHT22;12762;51.730;5.356;2022-08-11T09:02:40;36.40;33.10
24618;DHT22;12762;51.730;5.356;2022-08-11T09:05:08;36.40;33.00
24618;DHT22;12762;51.730;5.356;2022-08-11T09:07:37;36.50;33.10
24618;DHT22;12762;51.730;5.356;2022-08-11T09:10:08;36.60;33.20
24618;DHT22;12762;51.730;5.356;2022-08-11T09:12:38;36.70;32.80
24618;DHT22;12762;51.730;5.356;2022-08-11T09:15:10;36.70;32.70
24618;DHT22;12762;51.730;5.356;2022-08-11T09:17:42;36.70;32.70
24618;DHT22;12762;51.730;5.356;2022-08-11T09:22:46;36.80;32.10
24618;DHT22;12762;51.730;5.356;2022-08-11T09:25:55;36.90;32.10
24618;DHT22;12762;51.730;5.356;2022-08-11T09:28:45;37.00;31.80
24618;DHT22;12762;51.730;5.356;2022-08-11T09:31:13;37.00;31.30
24618;DHT22;12762;51.730;5.356;2022-08-11T09:33:42;37.00;31.20
24618;DHT22;12762;51.730;5.356;2022-08-11T09:36:13;37.00;31.10
24618;DHT22;12762;51.730;5.356;2022-08-11T09:39:00;37.10;30.70
24618;DHT22;12762;51.730;5.356;2022-08-11T09:41:48;37.20;30.60
24618;DHT22;12762;51.730;5.356;2022-08-11T09:44:30;37.30;30.60
24618;DHT22;12762;51.730;5.356;2022-08-11T09:47:23;37.40;30.50
24618;DHT22;12762;51.730;5.356;2022-08-11T09:49:54;37.50;29.90
24618;DHT22;12762;51.730;5.356;2022-08-11T09:52:22;37.60;29.70
24618;DHT22;12762;51.730;5.356;2022-08-11T09:54:51;37.70;29.40
24618;DHT22;12762;51.730;5.356;2022-08-11T09:57:21;37.80;29.40
24618;DHT22;12762;51.730;5.356;2022-08-11T10:00:09;37.90;29.20
24618;DHT22;12762;51.730;5.356;2022-08-11T10:02:42;38.10;29.20
24618;DHT22;12762;51.730;5.356;2022-08-11T10:05:10;38.20;28.90
24618;DHT22;12762;51.730;5.356;2022-08-11T10:07:58;38.30;28.90
24618;DHT22;12762;51.730;5.356;2022-08-11T10:10:28;38.40;29.00
24618;DHT22;12762;51.730;5.356;2022-08-11T10:13:02;38.50;28.30
24618;DHT22;12762;51.730;5.356;2022-08-11T10:15:53;38.60;28.20
24618;DHT22;12762;51.730;5.356;2022-08-11T10:18:43;38.70;28.20
24618;DHT22;12762;51.730;5.356;2022-08-11T10:21:37;38.90;28.00
24618;DHT22;12762;51.730;5.356;2022-08-11T10:24:07;39.00;28.30
24618;DHT22;12762;51.730;5.356;2022-08-11T10:26:54;39.10;27.60
24618;DHT22;12762;51.730;5.356;2022-08-11T10:29:37;39.20;27.90
24618;DHT22;12762;51.730;5.356;2022-08-11T10:32:28;39.30;26.90
24618;DHT22;12762;51.730;5.356;2022-08-11T10:35:27;39.20;26.80
24618;DHT22;12762;51.730;5.356;2022-08-11T10:37:55;39.20;27.10
24618;DHT22;12762;51.730;5.356;2022-08-11T10:40:37;39.30;27.00
24618;DHT22;12762;51.730;5.356;2022-08-11T10:43:06;39.40;26.60
24618;DHT22;12762;51.730;5.356;2022-08-11T10:45:44;39.40;26.50
24618;DHT22;12762;51.730;5.356;2022-08-11T10:48:37;39.40;26.20
24618;DHT22;12762;51.730;5.356;2022-08-11T10:51:06;39.60;26.60
24618;DHT22;12762;51.730;5.356;2022-08-11T10:53:44;39.60;26.30
24618;DHT22;12762;51.730;5.356;2022-08-11T10:56:34;39.70;25.90
24618;DHT22;12762;51.730;5.356;2022-08-11T10:59:21;39.80;25.80
24618;DHT22;12762;51.730;5.356;2022-08-11T11:01:52;39.80;25.90
24618;DHT22;12762;51.730;5.356;2022-08-11T11:04:23;39.90;25.50
24618;DHT22;12762;51.730;5.356;2022-08-11T11:07:06;39.90;25.00
24618;DHT22;12762;51.730;5.356;2022-08-11T11:09:51;39.80;25.60
24618;DHT22;12762;51.730;5.356;2022-08-11T11:15:13;39.90;25.40
24618;DHT22;12762;51.730;5.356;2022-08-11T11:18:06;40.00;25.50
24618;DHT22;12762;51.730;5.356;2022-08-11T11:20:38;40.10;25.20
24618;DHT22;12762;51.730;5.356;2022-08-11T11:23:33;40.20;24.80
24618;DHT22;12762;51.730;5.356;2022-08-11T11:34:58;39.10;24.90
24618;DHT22;12762;51.730;5.356;2022-08-11T11:37:32;39.30;25.50
24618;DHT22;12762;51.730;5.356;2022-08-11T11:40:31;39.40;24.60
24618;DHT22;12762;51.730;5.356;2022-08-11T11:42:58;39.60;24.60
24618;DHT22;12762;51.730;5.356;2022-08-11T11:45:26;39.80;24.40
24618;DHT22;12762;51.730;5.356;2022-08-11T11:47:55;39.80;24.10
24618;DHT22;12762;51.730;5.356;2022-08-11T11:50:32;40.00;23.80
24618;DHT22;12762;51.730;5.356;2022-08-11T11:53:04;40.10;23.40
24618;DHT22;12762;51.730;5.356;2022-08-11T11:55:31;40.10;23.50
24618;DHT22;12762;51.730;5.356;2022-08-11T11:58:00;40.20;23.40
24618;DHT22;12762;51.730;5.356;2022-08-11T12:00:48;40.40;23.40
24618;DHT22;12762;51.730;5.356;2022-08-11T12:03:35;40.30;22.90
24618;DHT22;12762;51.730;5.356;2022-08-11T12:06:04;40.00;22.50
24618;DHT22;12762;51.730;5.356;2022-08-11T12:08:36;39.80;22.70
24618;DHT22;12762;51.730;5.356;2022-08-11T12:11:05;39.40;22.70
24618;DHT22;12762;51.730;5.356;2022-08-11T12:13:52;39.10;22.60
24618;DHT22;12762;51.730;5.356;2022-08-11T12:16:21;38.60;22.80
24618;DHT22;12762;51.730;5.356;2022-08-11T12:19:10;38.20;23.40
24618;DHT22;12762;51.730;5.356;2022-08-11T12:21:39;37.90;23.60
24618;DHT22;12762;51.730;5.356;2022-08-11T12:24:28;37.80;23.70
24618;DHT22;12762;51.730;5.356;2022-08-11T12:27:15;38.10;24.10
24618;DHT22;12762;51.730;5.356;2022-08-11T12:29:57;38.40;23.80
24618;DHT22;12762;51.730;5.356;2022-08-11T12:32:28;38.50;23.50
24618;DHT22;12762;51.730;5.356;2022-08-11T12:34:56;38.30;23.20
24618;DHT22;12762;51.730;5.356;2022-08-11T12:37:27;38.20;23.50
24618;DHT22;12762;51.730;5.356;2022-08-11T12:40:03;38.20;23.70
24618;DHT22;12762;51.730;5.356;2022-08-11T12:43:19;38.50;23.50
24618;DHT22;12762;51.730;5.356;2022-08-11T12:46:24;38.70;23.40
24618;DHT22;12762;51.730;5.356;2022-08-11T12:48:57;39.10;23.40
24618;DHT22;12762;51.730;5.356;2022-08-11T12:51:48;39.30;23.10
24618;DHT22;12762;51.730;5.356;2022-08-11T12:57:30;39.40;23.10
24618;DHT22;12762;51.730;5.356;2022-08-11T13:00:17;39.60;22.60
24618;DHT22;12762;51.730;5.356;2022-08-11T13:03:06;39.80;22.50
24618;DHT22;12762;51.730;5.356;2022-08-11T13:05:54;39.50;21.70
24618;DHT22;12762;51.730;5.356;2022-08-11T13:08:23;39.00;22.10
24618;DHT22;12762;51.730;5.356;2022-08-11T13:10:52;38.80;22.50
24618;DHT22;12762;51.730;5.356;2022-08-11T13:13:39;38.80;22.60
24618;DHT22;12762;51.730;5.356;2022-08-11T13:16:31;38.90;22.60
24618;DHT22;12762;51.730;5.356;2022-08-11T13:19:19;39.00;22.20
24618;DHT22;12762;51.730;5.356;2022-08-11T13:21:49;39.20;22.00
24618;DHT22;12762;51.730;5.356;2022-08-11T13:24:18;39.30;21.90
24618;DHT22;12762;51.730;5.356;2022-08-11T13:26:46;39.60;21.70
24618;DHT22;12762;51.730;5.356;2022-08-11T13:29:24;39.70;21.80
24618;DHT22;12762;51.730;5.356;2022-08-11T13:31:54;39.80;21.60
24618;DHT22;12762;51.730;5.356;2022-08-11T13:34:23;39.60;21.30
24618;DHT22;12762;51.730;5.356;2022-08-11T13:37:01;39.60;21.70
24618;DHT22;12762;51.730;5.356;2022-08-11T13:39:32;39.60;21.80
24618;DHT22;12762;51.730;5.356;2022-08-11T13:42:01;39.70;21.70
24618;DHT22;12762;51.730;5.356;2022-08-11T13:44:32;39.70;21.90
24618;DHT22;12762;51.730;5.356;2022-08-11T13:47:03;39.80;21.70
24618;DHT22;12762;51.730;5.356;2022-08-11T13:49:38;39.80;21.50
24618;DHT22;12762;51.730;5.356;2022-08-11T13:52:12;39.80;21.80
24618;DHT22;12762;51.730;5.356;2022-08-11T13:54:40;39.80;21.80
24618;DHT22;12762;51.730;5.356;2022-08-11T13:57:11;39.90;21.50
24618;DHT22;12762;51.730;5.356;2022-08-11T14:00:02;40.00;21.60
24618;DHT22;12762;51.730;5.356;2022-08-11T14:02:54;40.00;21.80
24618;DHT22;12762;51.730;5.356;2022-08-11T14:05:30;40.20;21.80
24618;DHT22;12762;51.730;5.356;2022-08-11T14:08:02;40.30;21.30
24618;DHT22;12762;51.730;5.356;2022-08-11T14:10:32;40.40;21.20
24618;DHT22;12762;51.730;5.356;2022-08-11T14:13:03;40.30;20.90
24618;DHT22;12762;51.730;5.356;2022-08-11T14:15:51;40.30;21.00
24618;DHT22;12762;51.730;5.356;2022-08-11T14:18:25;40.30;21.50
24618;DHT22;12762;51.730;5.356;2022-08-11T14:20:59;40.30;21.30
24618;DHT22;12762;51.730;5.356;2022-08-11T14:23:47;40.20;21.20
24618;DHT22;12762;51.730;5.356;2022-08-11T14:26:17;40.20;21.40
24618;DHT22;12762;51.730;5.356;2022-08-11T14:29:10;40.20;21.50
24618;DHT22;12762;51.730;5.356;2022-08-11T14:32:01;40.20;21.90
24618;DHT22;12762;51.730;5.356;2022-08-11T14:34:30;40.20;21.80
24618;DHT22;12762;51.730;5.356;2022-08-11T14:37:00;40.20;21.50
24618;DHT22;12762;51.730;5.356;2022-08-11T14:39:31;40.20;21.30
24618;DHT22;12762;51.730;5.356;2022-08-11T14:42:06;40.20;21.00
24618;DHT22;12762;51.730;5.356;2022-08-11T14:44:59;40.20;21.20
24618;DHT22;12762;51.730;5.356;2022-08-11T14:47:50;40.20;21.30
24618;DHT22;12762;51.730;5.356;2022-08-11T14:50:24;40.00;21.20
24618;DHT22;12762;51.730;5.356;2022-08-11T14:52:58;40.00;21.40
24618;DHT22;12762;51.730;5.356;2022-08-11T14:55:31;40.00;22.00
24618;DHT22;12762;51.730;5.356;2022-08-11T14:58:19;40.00;21.40
24618;DHT22;12762;51.730;5.356;2022-08-11T15:00:50;40.00;21.50
24618;DHT22;12762;51.730;5.356;2022-08-11T15:03:19;39.90;21.30
24618;DHT22;12762;51.730;5.356;2022-08-11T15:05:52;39.90;21.10
24618;DHT22;12762;51.730;5.356;2022-08-11T15:08:26;39.80;21.20
24618;DHT22;12762;51.730;5.356;2022-08-11T15:11:15;39.70;21.00
24618;DHT22;12762;51.730;5.356;2022-08-11T15:14:03;39.50;21.30
24618;DHT22;12762;51.730;5.356;2022-08-11T15:16:31;39.30;21.40
24618;DHT22;12762;51.730;5.356;2022-08-11T15:19:17;39.20;21.50
24618;DHT22;12762;51.730;5.356;2022-08-11T15:21:48;39.10;21.50
24618;DHT22;12762;51.730;5.356;2022-08-11T15:24:33;39.20;21.50
24618;DHT22;12762;51.730;5.356;2022-08-11T15:27:11;39.10;21.40
24618;DHT22;12762;51.730;5.356;2022-08-11T15:30:00;39.00;21.40
24618;DHT22;12762;51.730;5.356;2022-08-11T15:33:03;39.00;21.40
24618;DHT22;12762;51.730;5.356;2022-08-11T15:35:51;38.90;21.60
24618;DHT22;12762;51.730;5.356;2022-08-11T15:38:46;38.90;21.70
24618;DHT22;12762;51.730;5.356;2022-08-11T15:41:26;38.80;21.80
24618;DHT22;12762;51.730;5.356;2022-08-11T15:44:26;38.80;21.60
24618;DHT22;12762;51.730;5.356;2022-08-11T15:47:36;38.80;21.40
24618;DHT22;12762;51.730;5.356;2022-08-11T15:50:09;38.80;21.60
24618;DHT22;12762;51.730;5.356;2022-08-11T15:52:51;38.70;21.60
24618;DHT22;12762;51.730;5.356;2022-08-11T15:55:22;38.60;21.60
24618;DHT22;12762;51.730;5.356;2022-08-11T15:57:51;38.60;21.70
24618;DHT22;12762;51.730;5.356;2022-08-11T16:00:38;38.50;21.50
24618;DHT22;12762;51.730;5.356;2022-08-11T16:03:33;38.50;21.60
24618;DHT22;12762;51.730;5.356;2022-08-11T16:09:19;38.30;21.70
24618;DHT22;12762;51.730;5.356;2022-08-11T16:11:48;38.20;21.70
24618;DHT22;12762;51.730;5.356;2022-08-11T16:14:17;38.10;21.80
24618;DHT22;12762;51.730;5.356;2022-08-11T16:17:05;38.00;21.90
24618;DHT22;12762;51.730;5.356;2022-08-11T16:19:33;37.90;22.00
24618;DHT22;12762;51.730;5.356;2022-08-11T16:22:08;37.80;22.10
24618;DHT22;12762;51.730;5.356;2022-08-11T16:24:39;37.70;22.10
24618;DHT22;12762;51.730;5.356;2022-08-11T16:27:34;37.60;22.00
24618;DHT22;12762;51.730;5.356;2022-08-11T16:30:03;37.40;22.20
24618;DHT22;12762;51.730;5.356;2022-08-11T16:32:32;37.30;22.30
24618;DHT22;12762;51.730;5.356;2022-08-11T16:35:06;37.30;22.40
24618;DHT22;12762;51.730;5.356;2022-08-11T16:37:54;37.10;22.50
24618;DHT22;12762;51.730;5.356;2022-08-11T16:40:42;37.00;22.70
24618;DHT22;12762;51.730;5.356;2022-08-11T16:43:13;36.90;22.80
24618;DHT22;12762;51.730;5.356;2022-08-11T16:46:00;36.80;22.80
24618;DHT22;12762;51.730;5.356;2022-08-11T16:48:48;36.70;22.90
24618;DHT22;12762;51.730;5.356;2022-08-11T16:51:16;36.60;22.80
24618;DHT22;12762;51.730;5.356;2022-08-11T16:53:48;36.50;22.80
24618;DHT22;12762;51.730;5.356;2022-08-11T16:59:03;36.30;23.00
24618;DHT22;12762;51.730;5.356;2022-08-11T17:04:49;36.10;23.20
24618;DHT22;12762;51.730;5.356;2022-08-11T17:07:38;36.00;23.40
24618;DHT22;12762;51.730;5.356;2022-08-11T17:10:32;35.80;23.50
24618;DHT22;12762;51.730;5.356;2022-08-11T17:13:36;35.60;23.60
24618;DHT22;12762;51.730;5.356;2022-08-11T17:16:09;35.50;23.70
24618;DHT22;12762;51.730;5.356;2022-08-11T17:19:02;35.40;23.90
24618;DHT22;12762;51.730;5.356;2022-08-11T17:21:36;35.30;24.20
24618;DHT22;12762;51.730;5.356;2022-08-11T17:24:26;35.10;24.20
24618;DHT22;12762;51.730;5.356;2022-08-11T17:26:55;34.90;24.20
24618;DHT22;12762;51.730;5.356;2022-08-11T17:29:36;34.70;24.20
24618;DHT22;12762;51.730;5.356;2022-08-11T17:32:25;34.60;24.40
24618;DHT22;12762;51.730;5.356;2022-08-11T17:35:28;34.40;24.50
24618;DHT22;12762;51.730;5.356;2022-08-11T17:38:17;34.20;24.50
24618;DHT22;12762;51.730;5.356;2022-08-11T17:40:56;34.10;24.60
24618;DHT22;12762;51.730;5.356;2022-08-11T17:43:50;34.00;25.30
24618;DHT22;12762;51.730;5.356;2022-08-11T17:46:38;33.80;25.40
24618;DHT22;12762;51.730;5.356;2022-08-11T17:49:33;33.60;25.40
24618;DHT22;12762;51.730;5.356;2022-08-11T17:52:04;33.40;25.90
24618;DHT22;12762;51.730;5.356;2022-08-11T17:54:52;33.20;25.90
24618;DHT22;12762;51.730;5.356;2022-08-11T17:57:40;33.00;26.50
24618;DHT22;12762;51.730;5.356;2022-08-11T18:00:25;32.80;26.50
24618;DHT22;12762;51.730;5.356;2022-08-11T18:02:53;32.60;27.30
24618;DHT22;12762;51.730;5.356;2022-08-11T18:05:42;32.50;27.90
24618;DHT22;12762;51.730;5.356;2022-08-11T18:08:12;32.30;27.70
24618;DHT22;12762;51.730;5.356;2022-08-11T18:11:00;32.10;27.70
24618;DHT22;12762;51.730;5.356;2022-08-11T18:14:08;31.90;27.70
24618;DHT22;12762;51.730;5.356;2022-08-11T18:16:55;31.80;27.80
24618;DHT22;12762;51.730;5.356;2022-08-11T18:19:41;31.70;27.70
24618;DHT22;12762;51.730;5.356;2022-08-11T18:22:31;31.50;28.20
24618;DHT22;12762;51.730;5.356;2022-08-11T18:25:25;31.40;28.50
24618;DHT22;12762;51.730;5.356;2022-08-11T18:28:13;31.20;28.80
24618;DHT22;12762;51.730;5.356;2022-08-11T18:31:02;31.10;28.70
24618;DHT22;12762;51.730;5.356;2022-08-11T18:33:51;31.00;28.90
24618;DHT22;12762;51.730;5.356;2022-08-11T18:36:41;30.90;29.10
24618;DHT22;12762;51.730;5.356;2022-08-11T18:39:34;30.70;29.20
24618;DHT22;12762;51.730;5.356;2022-08-11T18:42:22;30.60;29.20
24618;DHT22;12762;51.730;5.356;2022-08-11T18:45:10;30.50;29.50
24618;DHT22;12762;51.730;5.356;2022-08-11T18:48:13;30.40;29.50
24618;DHT22;12762;51.730;5.356;2022-08-11T18:51:03;30.30;29.80
24618;DHT22;12762;51.730;5.356;2022-08-11T18:54:06;30.10;29.90
24618;DHT22;12762;51.730;5.356;2022-08-11T18:56:55;30.00;29.90
24618;DHT22;12762;51.730;5.356;2022-08-11T18:59:43;29.90;30.00
24618;DHT22;12762;51.730;5.356;2022-08-11T19:02:30;29.70;30.60
24618;DHT22;12762;51.730;5.356;2022-08-11T19:05:20;29.60;30.90
24618;DHT22;12762;51.730;5.356;2022-08-11T19:08:29;29.50;31.10
24618;DHT22;12762;51.730;5.356;2022-08-11T19:11:16;29.30;31.20
24618;DHT22;12762;51.730;5.356;2022-08-11T19:14:11;29.20;31.30
24618;DHT22;12762;51.730;5.356;2022-08-11T19:16:59;29.00;31.70
24618;DHT22;12762;51.730;5.356;2022-08-11T19:20:08;28.90;32.10
24618;DHT22;12762;51.730;5.356;2022-08-11T19:22:56;28.70;32.30
24618;DHT22;12762;51.730;5.356;2022-08-11T19:25:43;28.60;32.50
24618;DHT22;12762;51.730;5.356;2022-08-11T19:28:30;28.50;33.10
24618;DHT22;12762;51.730;5.356;2022-08-11T19:31:16;28.40;33.80
24618;DHT22;12762;51.730;5.356;2022-08-11T19:34:08;28.20;33.40
24618;DHT22;12762;51.730;5.356;2022-08-11T19:36:55;28.10;33.60
24618;DHT22;12762;51.730;5.356;2022-08-11T19:39:41;28.00;33.60
24618;DHT22;12762;51.730;5.356;2022-08-11T19:42:27;27.90;33.60
24618;DHT22;12762;51.730;5.356;2022-08-11T19:45:14;27.80;34.00
24618;DHT22;12762;51.730;5.356;2022-08-11T19:48:06;27.70;34.20
24618;DHT22;12762;51.730;5.356;2022-08-11T19:50:58;27.60;34.50
24618;DHT22;12762;51.730;5.356;2022-08-11T19:53:46;27.40;34.70
24618;DHT22;12762;51.730;5.356;2022-08-11T19:56:34;27.30;34.60
24618;DHT22;12762;51.730;5.356;2022-08-11T19:59:21;27.20;34.40
24618;DHT22;12762;51.730;5.356;2022-08-11T20:02:08;27.10;34.70
24618;DHT22;12762;51.730;5.356;2022-08-11T20:04:54;27.00;35.30
24618;DHT22;12762;51.730;5.356;2022-08-11T20:07:41;27.00;35.70
24618;DHT22;12762;51.730;5.356;2022-08-11T20:10:32;26.90;35.80
24618;DHT22;12762;51.730;5.356;2022-08-11T20:13:21;26.70;35.50